sensor_id;sensor_type;location;lat;lon;timestamp;P1;durP1;ratioP1;P2;durP2;ratioP2
43226;SDS011;28839;52.404;9.808;2022-12-07T00:00:17;50.33;;;24.70;;
43226;SDS011;28839;52.404;9.808;2022-12-07T00:07:13;47.85;;;26.52;;
43226;SDS011;28839;52.404;9.808;2022-12-07T00:14:08;53.38;;;26.33;;
43226;SDS011;28839;52.404;9.808;2022-12-07T00:21:04;48.30;;;24.90;;
43226;SDS011;28839;52.404;9.808;2022-12-07T00:28:01;53.85;;;26.30;;
43226;SDS011;28839;52.404;9.808;2022-12-07T00:34:55;48.25;;;24.33;;
43226;SDS011;28839;52.404;9.808;2022-12-07T00:41:49;44.53;;;25.00;;
43226;SDS011;28839;52.404;9.808;2022-12-07T00:48:44;51.13;;;24.37;;
43226;SDS011;28839;52.404;9.808;2022-12-07T00:55:39;45.72;;;24.37;;
43226;SDS011;28839;52.404;9.808;2022-12-07T01:02:33;46.30;;;26.70;;
43226;SDS011;28839;52.404;9.808;2022-12-07T01:09:28;38.75;;;22.05;;
43226;SDS011;28839;52.404;9.808;2022-12-07T01:16:23;38.85;;;22.75;;
43226;SDS011;28839;52.404;9.808;2022-12-07T01:23:19;37.03;;;22.55;;
43226;SDS011;28839;52.404;9.808;2022-12-07T01:30:14;39.05;;;22.70;;
43226;SDS011;28839;52.404;9.808;2022-12-07T01:37:08;40.55;;;25.52;;
43226;SDS011;28839;52.404;9.808;2022-12-07T01:51:23;37.90;;;25.17;;
43226;SDS011;28839;52.404;9.808;2022-12-07T01:58:17;40.55;;;25.85;;
43226;SDS011;28839;52.404;9.808;2022-12-07T02:05:10;37.72;;;23.15;;
43226;SDS011;28839;52.404;9.808;2022-12-07T02:12:06;36.55;;;23.75;;
43226;SDS011;28839;52.404;9.808;2022-12-07T02:19:04;37.35;;;21.48;;
43226;SDS011;28839;52.404;9.808;2022-12-07T02:26:28;36.72;;;20.62;;
43226;SDS011;28839;52.404;9.808;2022-12-07T02:33:40;33.25;;;19.80;;
43226;SDS011;28839;52.404;9.808;2022-12-07T02:40:38;30.62;;;20.70;;
43226;SDS011;28839;52.404;9.808;2022-12-07T02:47:36;37.47;;;22.37;;
43226;SDS011;28839;52.404;9.808;2022-12-07T02:54:32;34.30;;;21.37;;
43226;SDS011;28839;52.404;9.808;2022-12-07T03:01:28;30.42;;;20.85;;
43226;SDS011;28839;52.404;9.808;2022-12-07T03:08:29;32.80;;;19.98;;
43226;SDS011;28839;52.404;9.808;2022-12-07T03:15:33;36.30;;;18.90;;
43226;SDS011;28839;52.404;9.808;2022-12-07T03:22:34;28.40;;;17.87;;
43226;SDS011;28839;52.404;9.808;2022-12-07T03:29:30;27.62;;;17.50;;
43226;SDS011;28839;52.404;9.808;2022-12-07T03:36:30;30.90;;;16.87;;
43226;SDS011;28839;52.404;9.808;2022-12-07T03:43:29;28.70;;;14.98;;
43226;SDS011;28839;52.404;9.808;2022-12-07T03:50:25;27.57;;;15.60;;
43226;SDS011;28839;52.404;9.808;2022-12-07T03:57:25;25.48;;;14.57;;
43226;SDS011;28839;52.404;9.808;2022-12-07T04:04:22;20.50;;;13.07;;
43226;SDS011;28839;52.404;9.808;2022-12-07T04:11:17;21.12;;;13.57;;
43226;SDS011;28839;52.404;9.808;2022-12-07T04:18:12;25.52;;;13.55;;
43226;SDS011;28839;52.404;9.808;2022-12-07T04:25:06;21.52;;;13.23;;
43226;SDS011;28839;52.404;9.808;2022-12-07T04:32:00;25.17;;;14.87;;
43226;SDS011;28839;52.404;9.808;2022-12-07T04:38:56;24.83;;;12.63;;
43226;SDS011;28839;52.404;9.808;2022-12-07T04:45:49;26.02;;;13.38;;
43226;SDS011;28839;52.404;9.808;2022-12-07T04:52:43;19.98;;;11.77;;
43226;SDS011;28839;52.404;9.808;2022-12-07T04:59:38;20.60;;;12.10;;
43226;SDS011;28839;52.404;9.808;2022-12-07T05:06:32;20.33;;;11.65;;
43226;SDS011;28839;52.404;9.808;2022-12-07T05:13:26;21.45;;;12.00;;
43226;SDS011;28839;52.404;9.808;2022-12-07T05:20:24;19.23;;;11.33;;
43226;SDS011;28839;52.404;9.808;2022-12-07T05:27:18;22.10;;;11.82;;
43226;SDS011;28839;52.404;9.808;2022-12-07T05:34:12;22.55;;;11.70;;
43226;SDS011;28839;52.404;9.808;2022-12-07T05:41:08;16.67;;;9.07;;
43226;SDS011;28839;52.404;9.808;2022-12-07T05:48:25;21.67;;;11.40;;
43226;SDS011;28839;52.404;9.808;2022-12-07T05:55:19;20.50;;;11.57;;
43226;SDS011;28839;52.404;9.808;2022-12-07T06:02:15;17.65;;;10.73;;
43226;SDS011;28839;52.404;9.808;2022-12-07T06:09:09;19.85;;;9.55;;
43226;SDS011;28839;52.404;9.808;2022-12-07T06:16:04;15.93;;;7.57;;
43226;SDS011;28839;52.404;9.808;2022-12-07T06:23:00;15.88;;;6.97;;
43226;SDS011;28839;52.404;9.808;2022-12-07T06:29:54;17.08;;;7.70;;
43226;SDS011;28839;52.404;9.808;2022-12-07T06:36:48;21.95;;;8.10;;
43226;SDS011;28839;52.404;9.808;2022-12-07T06:43:46;17.02;;;9.30;;
43226;SDS011;28839;52.404;9.808;2022-12-07T06:50:41;15.45;;;7.80;;
43226;SDS011;28839;52.404;9.808;2022-12-07T06:57:37;17.23;;;7.12;;
43226;SDS011;28839;52.404;9.808;2022-12-07T07:04:33;12.95;;;5.40;;
43226;SDS011;28839;52.404;9.808;2022-12-07T07:11:26;12.65;;;5.65;;
43226;SDS011;28839;52.404;9.808;2022-12-07T07:18:20;9.52;;;6.45;;
43226;SDS011;28839;52.404;9.808;2022-12-07T07:25:16;10.43;;;5.65;;
43226;SDS011;28839;52.404;9.808;2022-12-07T07:32:10;15.38;;;5.15;;
43226;SDS011;28839;52.404;9.808;2022-12-07T07:39:05;13.40;;;5.37;;
43226;SDS011;28839;52.404;9.808;2022-12-07T07:46:00;10.02;;;4.85;;
43226;SDS011;28839;52.404;9.808;2022-12-07T07:52:54;10.98;;;4.50;;
43226;SDS011;28839;52.404;9.808;2022-12-07T07:59:49;9.10;;;3.97;;
43226;SDS011;28839;52.404;9.808;2022-12-07T08:06:44;7.47;;;4.32;;
43226;SDS011;28839;52.404;9.808;2022-12-07T08:13:38;6.78;;;3.95;;
43226;SDS011;28839;52.404;9.808;2022-12-07T08:20:33;8.27;;;3.08;;
43226;SDS011;28839;52.404;9.808;2022-12-07T08:27:29;6.55;;;3.50;;
43226;SDS011;28839;52.404;9.808;2022-12-07T08:34:23;8.82;;;3.40;;
43226;SDS011;28839;52.404;9.808;2022-12-07T08:41:16;13.40;;;3.55;;
43226;SDS011;28839;52.404;9.808;2022-12-07T08:48:12;7.90;;;2.47;;
43226;SDS011;28839;52.404;9.808;2022-12-07T08:55:09;7.20;;;1.85;;
43226;SDS011;28839;52.404;9.808;2022-12-07T09:02:05;5.25;;;2.25;;
43226;SDS011;28839;52.404;9.808;2022-12-07T09:09:01;8.82;;;4.05;;
43226;SDS011;28839;52.404;9.808;2022-12-07T09:15:55;9.45;;;3.30;;
43226;SDS011;28839;52.404;9.808;2022-12-07T09:22:49;6.18;;;2.70;;
43226;SDS011;28839;52.404;9.808;2022-12-07T09:29:44;6.43;;;3.12;;
43226;SDS011;28839;52.404;9.808;2022-12-07T09:36:38;8.15;;;3.70;;
43226;SDS011;28839;52.404;9.808;2022-12-07T09:43:33;5.23;;;1.93;;
43226;SDS011;28839;52.404;9.808;2022-12-07T09:50:30;5.25;;;1.90;;
43226;SDS011;28839;52.404;9.808;2022-12-07T09:57:27;5.25;;;1.90;;
43226;SDS011;28839;52.404;9.808;2022-12-07T10:04:23;4.70;;;1.83;;
43226;SDS011;28839;52.404;9.808;2022-12-07T10:11:20;3.47;;;2.03;;
43226;SDS011;28839;52.404;9.808;2022-12-07T10:18:17;7.80;;;1.98;;
43226;SDS011;28839;52.404;9.808;2022-12-07T10:25:17;6.35;;;1.77;;
43226;SDS011;28839;52.404;9.808;2022-12-07T10:32:26;5.70;;;1.62;;
43226;SDS011;28839;52.404;9.808;2022-12-07T10:39:24;6.28;;;1.60;;
43226;SDS011;28839;52.404;9.808;2022-12-07T10:53:52;6.43;;;2.10;;
43226;SDS011;28839;52.404;9.808;2022-12-07T11:00:54;5.45;;;1.95;;
43226;SDS011;28839;52.404;9.808;2022-12-07T11:07:57;6.68;;;1.33;;
43226;SDS011;28839;52.404;9.808;2022-12-07T11:15:00;5.07;;;1.60;;
43226;SDS011;28839;52.404;9.808;2022-12-07T11:21:58;3.22;;;1.33;;
43226;SDS011;28839;52.404;9.808;2022-12-07T11:29:01;4.43;;;1.67;;
43226;SDS011;28839;52.404;9.808;2022-12-07T11:36:07;1.33;;;0.90;;
43226;SDS011;28839;52.404;9.808;2022-12-07T11:43:11;2.08;;;0.90;;
43226;SDS011;28839;52.404;9.808;2022-12-07T11:50:14;4.47;;;1.20;;
43226;SDS011;28839;52.404;9.808;2022-12-07T11:57:19;8.77;;;1.48;;
43226;SDS011;28839;52.404;9.808;2022-12-07T12:04:23;6.45;;;1.92;;
43226;SDS011;28839;52.404;9.808;2022-12-07T12:11:26;3.42;;;2.05;;
43226;SDS011;28839;52.404;9.808;2022-12-07T12:18:37;8.25;;;2.75;;
43226;SDS011;28839;52.404;9.808;2022-12-07T12:25:42;9.60;;;3.55;;
43226;SDS011;28839;52.404;9.808;2022-12-07T12:32:39;7.62;;;2.90;;
43226;SDS011;28839;52.404;9.808;2022-12-07T12:39:35;7.07;;;2.60;;
43226;SDS011;28839;52.404;9.808;2022-12-07T12:53:48;7.60;;;2.08;;
43226;SDS011;28839;52.404;9.808;2022-12-07T13:00:43;11.90;;;2.87;;
43226;SDS011;28839;52.404;9.808;2022-12-07T13:07:50;13.80;;;2.70;;
43226;SDS011;28839;52.404;9.808;2022-12-07T13:21:53;8.85;;;2.30;;
43226;SDS011;28839;52.404;9.808;2022-12-07T13:28:48;7.65;;;2.40;;
43226;SDS011;28839;52.404;9.808;2022-12-07T13:35:43;8.65;;;1.85;;
43226;SDS011;28839;52.404;9.808;2022-12-07T13:42:38;12.73;;;2.37;;
43226;SDS011;28839;52.404;9.808;2022-12-07T13:49:32;10.18;;;2.80;;
43226;SDS011;28839;52.404;9.808;2022-12-07T13:56:31;11.32;;;2.30;;
43226;SDS011;28839;52.404;9.808;2022-12-07T14:03:31;8.40;;;1.92;;
43226;SDS011;28839;52.404;9.808;2022-12-07T14:10:28;7.97;;;2.00;;
43226;SDS011;28839;52.404;9.808;2022-12-07T14:17:23;9.50;;;2.17;;
43226;SDS011;28839;52.404;9.808;2022-12-07T14:24:20;10.63;;;2.50;;
43226;SDS011;28839;52.404;9.808;2022-12-07T14:31:15;4.97;;;2.37;;
43226;SDS011;28839;52.404;9.808;2022-12-07T14:38:10;6.40;;;2.42;;
43226;SDS011;28839;52.404;9.808;2022-12-07T14:45:10;12.68;;;2.75;;
43226;SDS011;28839;52.404;9.808;2022-12-07T14:52:09;5.62;;;2.50;;
43226;SDS011;28839;52.404;9.808;2022-12-07T14:59:08;14.57;;;2.95;;
43226;SDS011;28839;52.404;9.808;2022-12-07T15:06:03;15.60;;;4.95;;
43226;SDS011;28839;52.404;9.808;2022-12-07T15:12:58;35.28;;;12.63;;
43226;SDS011;28839;52.404;9.808;2022-12-07T15:20:09;8.48;;;2.33;;
43226;SDS011;28839;52.404;9.808;2022-12-07T15:27:06;7.53;;;2.70;;
43226;SDS011;28839;52.404;9.808;2022-12-07T15:34:00;21.17;;;5.90;;
43226;SDS011;28839;52.404;9.808;2022-12-07T15:40:54;11.07;;;4.28;;
43226;SDS011;28839;52.404;9.808;2022-12-07T15:47:49;8.60;;;3.22;;
43226;SDS011;28839;52.404;9.808;2022-12-07T15:54:43;15.98;;;3.08;;
43226;SDS011;28839;52.404;9.808;2022-12-07T16:01:37;7.22;;;3.65;;
43226;SDS011;28839;52.404;9.808;2022-12-07T16:08:32;11.68;;;4.05;;
43226;SDS011;28839;52.404;9.808;2022-12-07T16:15:26;12.90;;;4.10;;
43226;SDS011;28839;52.404;9.808;2022-12-07T16:22:20;7.45;;;3.70;;
43226;SDS011;28839;52.404;9.808;2022-12-07T16:29:16;8.10;;;4.07;;
43226;SDS011;28839;52.404;9.808;2022-12-07T16:36:12;8.27;;;4.60;;
43226;SDS011;28839;52.404;9.808;2022-12-07T16:43:08;9.70;;;5.15;;
43226;SDS011;28839;52.404;9.808;2022-12-07T16:50:06;12.02;;;5.97;;
43226;SDS011;28839;52.404;9.808;2022-12-07T17:04:23;8.07;;;3.83;;
43226;SDS011;28839;52.404;9.808;2022-12-07T17:11:19;15.93;;;5.50;;
43226;SDS011;28839;52.404;9.808;2022-12-07T17:18:14;13.68;;;6.87;;
43226;SDS011;28839;52.404;9.808;2022-12-07T17:25:08;14.38;;;5.53;;
43226;SDS011;28839;52.404;9.808;2022-12-07T17:32:04;3.42;;;2.20;;
43226;SDS011;28839;52.404;9.808;2022-12-07T17:38:58;5.07;;;2.03;;
43226;SDS011;28839;52.404;9.808;2022-12-07T17:45:52;6.87;;;3.17;;
43226;SDS011;28839;52.404;9.808;2022-12-07T17:52:47;5.32;;;1.50;;
43226;SDS011;28839;52.404;9.808;2022-12-07T17:59:58;2.90;;;1.52;;
43226;SDS011;28839;52.404;9.808;2022-12-07T18:06:52;1.48;;;1.27;;
43226;SDS011;28839;52.404;9.808;2022-12-07T18:13:48;3.37;;;1.80;;
43226;SDS011;28839;52.404;9.808;2022-12-07T18:20:42;10.25;;;6.12;;
43226;SDS011;28839;52.404;9.808;2022-12-07T18:27:36;10.40;;;5.57;;
43226;SDS011;28839;52.404;9.808;2022-12-07T18:34:31;7.12;;;4.80;;
43226;SDS011;28839;52.404;9.808;2022-12-07T18:41:25;16.92;;;9.30;;
43226;SDS011;28839;52.404;9.808;2022-12-07T18:48:19;12.63;;;8.88;;
43226;SDS011;28839;52.404;9.808;2022-12-07T18:55:16;8.82;;;5.43;;
43226;SDS011;28839;52.404;9.808;2022-12-07T19:02:09;15.57;;;8.95;;
43226;SDS011;28839;52.404;9.808;2022-12-07T19:09:03;19.40;;;12.50;;
43226;SDS011;28839;52.404;9.808;2022-12-07T19:15:59;14.00;;;8.77;;
43226;SDS011;28839;52.404;9.808;2022-12-07T19:22:53;21.92;;;12.93;;
43226;SDS011;28839;52.404;9.808;2022-12-07T19:29:47;25.03;;;12.97;;
43226;SDS011;28839;52.404;9.808;2022-12-07T19:36:43;16.27;;;7.62;;
43226;SDS011;28839;52.404;9.808;2022-12-07T19:43:38;15.68;;;8.98;;
43226;SDS011;28839;52.404;9.808;2022-12-07T19:50:31;13.20;;;5.93;;
43226;SDS011;28839;52.404;9.808;2022-12-07T19:57:27;12.43;;;8.43;;
43226;SDS011;28839;52.404;9.808;2022-12-07T20:04:21;10.27;;;5.53;;
43226;SDS011;28839;52.404;9.808;2022-12-07T20:11:17;15.32;;;4.95;;
43226;SDS011;28839;52.404;9.808;2022-12-07T20:18:30;7.75;;;4.95;;
43226;SDS011;28839;52.404;9.808;2022-12-07T20:25:25;15.35;;;5.93;;
43226;SDS011;28839;52.404;9.808;2022-12-07T20:32:19;11.98;;;5.68;;
43226;SDS011;28839;52.404;9.808;2022-12-07T20:39:15;11.38;;;5.18;;
43226;SDS011;28839;52.404;9.808;2022-12-07T20:46:10;9.68;;;5.40;;
43226;SDS011;28839;52.404;9.808;2022-12-07T20:59:59;16.37;;;5.93;;
43226;SDS011;28839;52.404;9.808;2022-12-07T21:06:53;11.07;;;4.68;;
43226;SDS011;28839;52.404;9.808;2022-12-07T21:13:47;8.13;;;5.12;;
43226;SDS011;28839;52.404;9.808;2022-12-07T21:20:42;6.82;;;3.67;;
43226;SDS011;28839;52.404;9.808;2022-12-07T21:27:36;13.15;;;5.95;;
43226;SDS011;28839;52.404;9.808;2022-12-07T21:34:30;10.07;;;5.90;;
43226;SDS011;28839;52.404;9.808;2022-12-07T21:41:26;15.80;;;7.20;;
43226;SDS011;28839;52.404;9.808;2022-12-07T21:48:20;20.73;;;10.48;;
43226;SDS011;28839;52.404;9.808;2022-12-07T21:55:14;16.65;;;9.73;;
43226;SDS011;28839;52.404;9.808;2022-12-07T22:02:11;13.77;;;7.83;;
43226;SDS011;28839;52.404;9.808;2022-12-07T22:09:06;13.75;;;7.75;;
43226;SDS011;28839;52.404;9.808;2022-12-07T22:16:00;14.18;;;8.23;;
43226;SDS011;28839;52.404;9.808;2022-12-07T22:22:56;13.93;;;7.15;;
43226;SDS011;28839;52.404;9.808;2022-12-07T22:29:50;12.55;;;6.93;;
43226;SDS011;28839;52.404;9.808;2022-12-07T22:36:44;13.25;;;7.03;;
43226;SDS011;28839;52.404;9.808;2022-12-07T22:43:39;12.10;;;6.25;;
43226;SDS011;28839;52.404;9.808;2022-12-07T22:50:33;12.18;;;6.55;;
43226;SDS011;28839;52.404;9.808;2022-12-07T22:57:28;15.87;;;8.77;;
43226;SDS011;28839;52.404;9.808;2022-12-07T23:04:23;18.58;;;10.90;;
43226;SDS011;28839;52.404;9.808;2022-12-07T23:11:21;16.67;;;11.07;;
43226;SDS011;28839;52.404;9.808;2022-12-07T23:18:33;18.45;;;9.82;;
43226;SDS011;28839;52.404;9.808;2022-12-07T23:25:29;18.65;;;11.85;;
43226;SDS011;28839;52.404;9.808;2022-12-07T23:32:24;16.15;;;10.38;;
43226;SDS011;28839;52.404;9.808;2022-12-07T23:39:18;26.12;;;11.23;;
43226;SDS011;28839;52.404;9.808;2022-12-07T23:46:14;20.48;;;12.18;;
43226;SDS011;28839;52.404;9.808;2022-12-07T23:53:09;15.73;;;11.32;;
